Time;durP1;ratioP1;P1;durP2;ratioP2;P2;SDS_P1;SDS_P2;PMS_P1;PMS_P2;Temp;Humidity;BMP_temperature;BMP_pressure;BME280_temperature;BME280_humidity;BME280_pressure;Samples;Min_cycle;Max_cycle;Signal;HPM_P1;HPM_P2
2022/07/21 00:01:48;;;;;;;1.95;0.50;;;;;;;19.87;58.23;100867.81;4869160;29;20071;-74
2022/07/21 00:04:15;;;;;;;0.63;0.60;;;;;;;19.78;58.74;100870.56;4890481;29;20028;-75
2022/07/21 00:06:42;;;;;;;0.55;0.47;;;;;;;19.71;58.40;100876.53;4857542;29;20036;-74
2022/07/21 00:09:09;;;;;;;1.27;0.60;;;;;;;19.68;58.36;100871.63;4866940;29;20064;-74
2022/07/21 00:11:36;;;;;;;0.93;0.68;;;;;;;19.64;58.40;100872.56;4899365;29;20127;-75
2022/07/21 00:14:02;;;;;;;1.90;0.75;;;;;;;19.59;58.77;100870.72;4881539;29;20021;-75
2022/07/21 00:16:27;;;;;;;1.75;0.60;;;;;;;19.54;58.31;100865.31;4875553;29;20048;-75
2022/07/21 00:18:53;;;;;;;1.65;0.70;;;;;;;19.50;58.58;100869.88;4895062;29;20025;-74
2022/07/21 00:21:18;;;;;;;0.90;0.60;;;;;;;19.44;58.92;100879.44;4878949;29;20373;-74
2022/07/21 00:23:44;;;;;;;0.75;0.50;;;;;;;19.42;59.19;100890.88;4845929;29;20048;-75
2022/07/21 00:26:09;;;;;;;0.80;0.55;;;;;;;19.39;59.08;100891.50;4878395;29;20372;-76
2022/07/21 00:28:35;;;;;;;1.10;0.73;;;;;;;19.30;59.11;100883.09;4867898;29;20025;-75
2022/07/21 00:31:00;;;;;;;0.95;0.63;;;;;;;19.30;58.90;100893.34;4880249;29;20403;-75
2022/07/21 00:33:26;;;;;;;1.15;0.70;;;;;;;19.26;58.38;100893.19;4867776;29;20037;-74
2022/07/21 00:35:51;;;;;;;0.60;0.40;;;;;;;19.26;58.65;100893.19;4866629;29;20056;-75
2022/07/21 00:38:16;;;;;;;1.85;0.75;;;;;;;19.23;57.63;100882.72;4884127;29;20052;-75
2022/07/21 00:40:42;;;;;;;0.75;0.52;;;;;;;19.22;57.24;100897.72;4867617;29;20032;-75
2022/07/21 00:43:08;;;;;;;1.10;0.60;;;;;;;19.23;56.76;100893.81;4867768;29;20108;-75
2022/07/21 00:45:33;;;;;;;0.52;0.40;;;;;;;19.27;55.36;100889.25;4885018;29;20079;-74
2022/07/21 00:47:59;;;;;;;4.05;0.22;;;;;;;19.19;55.26;100884.47;4867555;29;20060;-75
2022/07/21 00:50:24;;;;;;;0.50;0.32;;;;;;;19.19;55.35;100890.03;4882737;29;20067;-75
2022/07/21 00:52:50;;;;;;;1.17;0.50;;;;;;;19.19;54.79;100890.03;4880900;29;20069;-74
2022/07/21 00:55:19;;;;;;;0.75;0.50;;;;;;;19.08;55.15;100889.41;4883429;29;20087;-76
2022/07/21 00:57:45;;;;;;;0.57;0.30;;;;;;;18.96;54.90;100876.09;4873839;29;20025;-76
2022/07/21 01:00:15;;;;;;;0.68;0.40;;;;;;;18.94;54.66;100897.78;4874487;29;20447;-74
2022/07/21 01:02:41;;;;;;;0.50;0.40;;;;;;;18.89;54.96;100881.25;4881481;29;20035;-75
2022/07/21 01:05:12;;;;;;;0.88;0.45;;;;;;;18.87;54.87;100880.75;4878176;29;20032;-75
2022/07/21 01:07:39;;;;;;;2.13;0.57;;;;;;;18.74;54.62;100879.63;4868916;29;20041;-75
2022/07/21 01:10:05;;;;;;;4.43;0.40;;;;;;;18.75;55.56;100889.56;4878176;29;20037;-75
2022/07/21 01:12:31;;;;;;;0.28;0.28;;;;;;;18.62;54.92;100882.91;4868964;29;20175;-75
2022/07/21 01:14:57;;;;;;;0.50;0.40;;;;;;;18.70;55.89;100888.88;4894789;29;20474;-75
2022/07/21 01:17:23;;;;;;;0.88;0.40;;;;;;;18.71;55.20;100893.28;4897889;29;20033;-75
2022/07/21 01:19:48;;;;;;;1.10;0.47;;;;;;;18.78;54.75;100888.16;4884851;29;20043;-75
2022/07/21 01:22:14;;;;;;;0.40;0.20;;;;;;;18.75;54.65;100892.34;4884529;29;20629;-75
2022/07/21 01:24:39;;;;;;;1.85;0.43;;;;;;;18.74;55.33;100899.00;4866522;29;20033;-74
2022/07/21 01:27:05;;;;;;;0.65;0.30;;;;;;;18.73;55.06;100899.31;4881714;29;20029;-74
2022/07/21 01:29:30;;;;;;;0.38;0.32;;;;;;;18.73;54.53;100902.09;4903930;29;20032;-77
2022/07/21 01:31:56;;;;;;;0.40;0.40;;;;;;;18.62;54.56;100895.97;4901519;29;20918;-75
2022/07/21 01:34:21;;;;;;;0.52;0.30;;;;;;;18.60;54.81;100904.56;4901284;29;20072;-76
2022/07/21 01:36:47;;;;;;;3.08;0.32;;;;;;;18.65;55.20;100903.66;4886014;29;20040;-75
2022/07/21 01:41:57;;;;;;;1.60;0.40;;;;;;;18.67;54.47;100893.91;4892926;29;20051;-75
2022/07/21 01:44:22;;;;;;;0.60;0.40;;;;;;;18.65;54.45;100901.69;4874340;29;20461;-74
2022/07/21 01:46:50;;;;;;;0.35;0.30;;;;;;;18.75;54.21;100894.28;4898581;29;20039;-74
2022/07/21 01:49:17;;;;;;;0.88;0.25;;;;;;;18.80;54.24;100905.25;4897347;29;20465;-75
2022/07/21 01:51:43;;;;;;;0.63;0.30;;;;;;;18.69;54.56;100901.06;4880154;29;20057;-75
2022/07/21 01:54:10;;;;;;;0.50;0.22;;;;;;;18.60;54.43;100904.56;4874813;29;20036;-75
2022/07/21 01:56:36;;;;;;;1.45;0.50;;;;;;;18.56;54.30;100905.47;4883673;29;20033;-74
2022/07/21 01:59:03;;;;;;;3.63;0.40;;;;;;;18.51;54.55;100905.59;4883685;29;20028;-75
2022/07/21 02:01:30;;;;;;;0.30;0.30;;;;;;;18.56;54.51;100903.53;4867003;29;20104;-75
2022/07/21 02:04:00;;;;;;;0.43;0.30;;;;;;;18.56;54.80;100914.63;4853437;29;20044;-76
2022/07/21 02:06:26;;;;;;;0.47;0.43;;;;;;;18.48;54.04;100909.78;4886835;29;20512;-74
2022/07/21 02:08:52;;;;;;;0.52;0.40;;;;;;;18.48;54.33;100912.56;4882827;29;20076;-74
2022/07/21 02:11:18;;;;;;;1.58;0.40;;;;;;;18.41;54.39;100909.38;4883188;29;20068;-76
2022/07/21 02:13:45;;;;;;;0.52;0.40;;;;;;;18.33;54.71;100910.94;4875321;29;20043;-75
2022/07/21 02:16:11;;;;;;;2.70;0.60;;;;;;;18.29;54.95;100905.16;4862898;29;20040;-76
2022/07/21 02:18:37;;;;;;;2.22;0.50;;;;;;;18.24;55.03;100918.31;4899870;29;20036;-74
2022/07/21 02:21:03;;;;;;;1.55;0.50;;;;;;;18.23;55.01;100911.94;4867619;29;20033;-74
2022/07/21 02:23:29;;;;;;;1.92;0.60;;;;;;;18.16;54.84;100907.94;4890115;29;20109;-73
2022/07/21 02:25:56;;;;;;;3.30;0.45;;;;;;;18.11;55.36;100906.09;4884360;29;20032;-73
2022/07/21 02:28:22;;;;;;;0.52;0.20;;;;;;;18.09;55.02;100902.78;4883047;29;20046;-74
2022/07/21 02:30:48;;;;;;;0.90;0.57;;;;;;;18.12;54.96;100907.72;4878797;29;20036;-74
2022/07/21 02:33:14;;;;;;;0.45;0.40;;;;;;;18.11;54.96;100895.81;4898961;29;20280;-72
2022/07/21 02:35:40;;;;;;;0.43;0.25;;;;;;;18.11;55.68;100892.25;4881588;29;20039;-73
2022/07/21 02:38:06;;;;;;;0.70;0.30;;;;;;;18.05;55.54;100893.47;4884890;29;20451;-74
2022/07/21 02:40:32;;;;;;;2.03;0.60;;;;;;;17.98;55.43;100895.81;4881174;29;20119;-74
2022/07/21 02:42:58;;;;;;;2.25;0.40;;;;;;;17.84;55.01;100896.56;4884318;29;20029;-73
2022/07/21 02:45:24;;;;;;;2.13;0.47;;;;;;;17.70;55.65;100892.97;4863708;29;20092;-74
2022/07/21 02:47:57;;;;;;;0.63;0.30;;;;;;;17.66;56.12;100901.03;4854997;29;20037;-74
2022/07/21 02:50:24;;;;;;;5.32;0.55;;;;;;;17.53;55.92;100899.03;4888420;29;20034;-74
2022/07/21 02:52:50;;;;;;;0.73;0.32;;;;;;;17.39;56.18;100893.44;4892036;29;20025;-74
2022/07/21 02:55:16;;;;;;;0.73;0.30;;;;;;;17.24;56.65;100895.34;4876814;29;20037;-75
2022/07/21 02:57:41;;;;;;;0.68;0.28;;;;;;;17.13;56.96;100896.59;4884407;29;20028;-75
2022/07/21 03:00:09;;;;;;;0.30;0.15;;;;;;;17.04;57.76;100901.13;4880100;29;20040;-73
2022/07/21 03:02:35;;;;;;;0.13;0.13;;;;;;;16.84;57.22;100900.28;4874140;29;20032;-73
2022/07/21 03:05:01;;;;;;;0.10;0.10;;;;;;;16.65;58.29;100896.69;4878138;29;20030;-74
2022/07/21 03:07:26;;;;;;;0.10;0.10;;;;;;;16.49;58.50;100899.63;4863127;29;20032;-74
2022/07/21 03:09:52;;;;;;;1.10;0.32;;;;;;;16.35;58.94;100904.19;4861755;29;20033;-74
2022/07/21 03:12:18;;;;;;;0.35;0.22;;;;;;;16.21;59.34;100904.91;4864041;29;20516;-75
2022/07/21 03:14:43;;;;;;;0.28;0.20;;;;;;;16.11;59.65;100915.22;4881119;29;20056;-75
2022/07/21 03:17:09;;;;;;;2.72;0.20;;;;;;;16.06;59.60;100907.81;4888523;29;20033;-74
2022/07/21 03:19:34;;;;;;;1.00;0.40;;;;;;;16.08;59.78;100911.09;4880118;29;20451;-76
2022/07/21 03:21:59;;;;;;;2.00;0.40;;;;;;;16.03;60.59;100914.75;4891550;29;20117;-75
2022/07/21 03:24:25;;;;;;;0.95;0.30;;;;;;;16.05;60.12;100900.66;4864416;29;20065;-74
2022/07/21 03:26:50;;;;;;;1.38;0.40;;;;;;;16.03;60.72;100903.72;4880445;29;20506;-75
2022/07/21 03:29:16;;;;;;;0.77;0.30;;;;;;;15.94;60.68;100904.63;4872562;29;20064;-76
2022/07/21 03:31:42;;;;;;;0.20;0.20;;;;;;;15.86;60.82;100915.16;4865415;29;20052;-77
2022/07/21 03:34:07;;;;;;;0.68;0.30;;;;;;;15.79;61.24;100913.88;4883843;29;20067;-76
2022/07/21 03:36:33;;;;;;;0.75;0.30;;;;;;;15.68;61.40;100902.06;4900539;29;20032;-76
2022/07/21 03:38:58;;;;;;;0.70;0.40;;;;;;;15.65;61.78;100903.47;4880541;29;20106;-74
2022/07/21 03:41:24;;;;;;;1.90;0.40;;;;;;;15.60;61.83;100910.97;4847760;29;20048;-75
2022/07/21 03:43:49;;;;;;;0.40;0.40;;;;;;;15.47;62.08;100906.94;4888972;29;20033;-77
2022/07/21 03:46:15;;;;;;;2.30;1.08;;;;;;;15.45;62.60;100903.63;4857348;29;20048;-76
2022/07/21 03:48:40;;;;;;;2.55;0.25;;;;;;;15.36;62.58;100901.50;4864806;29;20498;-75
2022/07/21 03:51:06;;;;;;;0.52;0.30;;;;;;;15.38;62.82;100909.47;4882548;29;20048;-75
2022/07/21 03:53:31;;;;;;;0.40;0.20;;;;;;;15.29;62.79;100900.19;4899425;29;20040;-75
2022/07/21 03:55:57;;;;;;;1.55;0.28;;;;;;;15.24;63.15;100902.94;4859522;29;20029;-75
2022/07/21 03:58:22;;;;;;;2.63;0.60;;;;;;;15.22;63.24;100910.69;4880882;29;20133;-73
2022/07/21 04:00:48;;;;;;;1.48;0.60;;;;;;;15.19;63.35;100917.59;4868989;29;20388;-76
2022/07/21 04:03:13;;;;;;;1.75;0.47;;;;;;;15.13;63.69;100908.53;4901187;29;20032;-75
2022/07/21 04:05:40;;;;;;;1.88;0.75;;;;;;;15.06;63.67;100916.28;4870927;29;20029;-75
2022/07/21 04:08:07;;;;;;;1.75;0.60;;;;;;;15.00;64.22;100914.66;4863449;29;20061;-76
2022/07/21 04:10:35;;;;;;;1.45;0.60;;;;;;;14.98;64.25;100912.19;4882162;29;20591;-75
2022/07/21 04:13:03;;;;;;;1.17;0.68;;;;;;;14.93;64.49;100908.66;4869273;29;20063;-76
2022/07/21 04:15:29;;;;;;;1.25;0.73;;;;;;;14.91;64.44;100911.69;4882081;29;20028;-76
2022/07/21 04:17:55;;;;;;;1.50;0.80;;;;;;;14.84;64.81;100905.66;4910646;29;20025;-75
2022/07/21 04:20:21;;;;;;;3.50;0.70;;;;;;;14.81;65.14;100920.81;4883202;29;20033;-77
2022/07/21 04:22:48;;;;;;;3.40;0.70;;;;;;;14.74;65.33;100920.28;4900056;29;20380;-74
2022/07/21 04:25:14;;;;;;;1.38;0.52;;;;;;;14.67;65.55;100917.00;4900846;29;20140;-76
2022/07/21 04:27:40;;;;;;;1.17;0.35;;;;;;;14.63;65.62;100921.44;4881939;29;20063;-75
2022/07/21 04:30:09;;;;;;;3.47;1.10;;;;;;;14.57;66.08;100925.28;4899938;29;20048;-75
2022/07/21 04:32:35;;;;;;;0.40;0.40;;;;;;;14.56;65.94;100926.38;4881321;29;20091;-76
2022/07/21 04:35:00;;;;;;;1.63;0.75;;;;;;;14.52;65.93;100925.31;4899574;29;20041;-76
2022/07/21 04:37:26;;;;;;;1.25;0.60;;;;;;;14.54;66.20;100929.41;4860460;29;20433;-76
2022/07/21 04:39:52;;;;;;;1.13;0.60;;;;;;;14.57;66.27;100928.03;4867794;29;20048;-75
2022/07/21 04:42:17;;;;;;;2.50;0.80;;;;;;;14.58;66.00;100933.25;4896440;29;20036;-76
2022/07/21 04:44:43;;;;;;;3.25;0.80;;;;;;;14.58;66.58;100926.94;4856736;29;20040;-75
2022/07/21 04:47:08;;;;;;;1.50;0.73;;;;;;;14.61;66.64;100935.47;4887018;29;20046;-75
2022/07/21 04:49:34;;;;;;;2.08;0.80;;;;;;;14.62;66.18;100937.13;4862725;29;20033;-75
2022/07/21 04:51:59;;;;;;;2.90;1.15;;;;;;;14.60;66.73;100935.72;4893304;29;20135;-74
2022/07/21 04:54:25;;;;;;;3.47;0.90;;;;;;;14.62;66.65;100947.31;4857231;29;20483;-74
2022/07/21 04:56:50;;;;;;;5.18;1.10;;;;;;;14.57;66.95;100944.53;4887638;29;20033;-75
2022/07/21 04:59:16;;;;;;;1.92;0.70;;;;;;;14.52;67.33;100941.81;4887975;29;20035;-75
2022/07/21 05:01:41;;;;;;;1.35;1.00;;;;;;;14.44;67.46;100935.78;4898626;29;20033;-77
2022/07/21 05:04:07;;;;;;;0.70;0.70;;;;;;;14.51;67.25;100942.91;4900115;29;20044;-76
2022/07/21 05:06:34;;;;;;;2.60;1.08;;;;;;;14.53;67.52;100933.28;4887743;29;20036;-76
2022/07/21 05:09:00;;;;;;;1.95;1.10;;;;;;;14.50;67.54;100944.84;4902880;29;20041;-75
2022/07/21 05:11:25;;;;;;;2.50;1.10;;;;;;;14.44;67.85;100949.56;4899549;29;20041;-75
2022/07/21 05:13:51;;;;;;;2.67;1.17;;;;;;;14.40;68.50;100959.47;4883489;29;20477;-75
2022/07/21 05:16:17;;;;;;;1.85;0.82;;;;;;;14.35;68.90;100964.16;4868454;29;20085;-74
2022/07/21 05:18:42;;;;;;;1.67;0.85;;;;;;;14.29;68.85;100960.56;4883988;29;20033;-74
2022/07/21 05:21:08;;;;;;;4.28;1.15;;;;;;;14.28;68.80;100964.41;4898544;29;20084;-75
2022/07/21 05:23:33;;;;;;;2.03;1.10;;;;;;;14.34;68.67;100960.59;4884101;29;20032;-76
2022/07/21 05:25:59;;;;;;;1.50;1.00;;;;;;;14.36;68.69;100966.63;4879652;29;20027;-75
2022/07/21 05:28:26;;;;;;;2.35;1.08;;;;;;;14.44;68.63;100971.56;4896977;29;20481;-74
2022/07/21 05:30:52;;;;;;;2.78;1.08;;;;;;;14.49;68.33;100974.28;4880964;29;20033;-75
2022/07/21 05:33:17;;;;;;;2.08;1.10;;;;;;;14.53;68.51;100976.47;4869263;29;20092;-75
2022/07/21 05:35:43;;;;;;;2.78;1.10;;;;;;;14.68;68.02;100979.22;4888410;29;20436;-75
2022/07/21 05:38:09;;;;;;;3.97;1.30;;;;;;;14.78;68.10;100984.69;4858972;29;20037;-74
2022/07/21 05:40:34;;;;;;;2.67;1.23;;;;;;;14.79;67.87;100980.84;4882192;29;20047;-73
2022/07/21 05:43:00;;;;;;;3.22;1.38;;;;;;;14.87;67.69;100986.88;4871029;29;20031;-72
2022/07/21 05:45:25;;;;;;;3.25;1.10;;;;;;;15.00;67.39;100983.53;4872126;29;20044;-74
2022/07/21 05:47:51;;;;;;;3.03;1.30;;;;;;;15.08;67.33;100993.94;4902543;29;20025;-74
2022/07/21 05:50:16;;;;;;;2.50;1.13;;;;;;;15.15;67.24;100994.44;4870170;29;20037;-72
2022/07/21 05:52:42;;;;;;;2.30;1.10;;;;;;;15.14;67.27;100992.81;4885642;29;20479;-73
2022/07/21 05:55:08;;;;;;;1.70;0.85;;;;;;;15.16;66.88;100998.03;4871076;29;20032;-73
2022/07/21 05:57:33;;;;;;;2.08;1.15;;;;;;;15.19;67.07;101006.56;4904986;29;20048;-73
2022/07/21 05:59:59;;;;;;;5.38;1.40;;;;;;;15.25;66.96;101004.59;4881812;29;20518;-71
2022/07/21 06:02:25;;;;;;;2.95;1.05;;;;;;;15.41;66.58;101018.31;4885088;29;20680;-74
2022/07/21 06:04:51;;;;;;;3.90;1.60;;;;;;;15.56;66.03;101009.13;4869552;29;20396;-76
2022/07/21 06:07:17;;;;;;;1.75;1.13;;;;;;;15.76;65.66;101014.50;4865289;29;20040;-75
2022/07/21 06:09:42;;;;;;;3.17;1.38;;;;;;;15.92;65.13;101006.16;4881609;29;20040;-76
2022/07/21 06:12:08;;;;;;;3.03;1.10;;;;;;;16.04;64.47;101009.34;4880936;29;20072;-74
2022/07/21 06:14:33;;;;;;;2.58;1.05;;;;;;;16.22;64.19;101027.97;4870872;29;20051;-75
2022/07/21 06:16:59;;;;;;;5.68;1.13;;;;;;;16.39;63.72;101027.50;4886261;29;20797;-75
2022/07/21 06:19:24;;;;;;;3.28;0.98;;;;;;;16.60;63.50;101027.31;4877087;29;20673;-76
2022/07/21 06:21:50;;;;;;;3.33;1.05;;;;;;;16.78;63.01;101028.50;4868275;29;20072;-75
2022/07/21 06:24:15;;;;;;;2.65;1.20;;;;;;;16.92;61.78;101023.97;4846150;29;20033;-76
2022/07/21 06:26:41;;;;;;;2.40;1.10;;;;;;;17.05;62.14;101038.16;4886503;29;20032;-76
2022/07/21 06:29:07;;;;;;;4.63;1.45;;;;;;;17.74;61.38;101043.31;4886231;29;20467;-77
2022/07/21 06:31:33;;;;;;;1.95;1.17;;;;;;;18.45;59.63;101041.38;4897790;29;20060;-75
2022/07/21 06:33:58;;;;;;;3.15;1.00;;;;;;;18.72;58.40;101044.47;4901501;29;20044;-75
2022/07/21 06:36:24;;;;;;;2.03;1.10;;;;;;;18.55;57.07;101045.91;4863561;29;20037;-75
2022/07/21 06:38:50;;;;;;;1.95;0.98;;;;;;;18.73;57.43;101051.69;4876206;29;20116;-75
2022/07/21 06:41:15;;;;;;;3.92;0.90;;;;;;;19.01;56.92;101047.84;4887161;29;20096;-75
2022/07/21 06:43:41;;;;;;;3.60;0.95;;;;;;;19.30;56.30;101049.47;4880462;29;20036;-76
2022/07/21 06:46:06;;;;;;;4.10;0.88;;;;;;;19.35;55.69;101049.34;4865121;29;20061;-74
2022/07/21 06:48:32;;;;;;;9.48;1.13;;;;;;;19.21;54.69;101048.53;4897011;29;20029;-73
2022/07/21 06:50:58;;;;;;;5.47;1.42;;;;;;;18.97;54.82;101052.34;4867713;29;20472;-76
2022/07/21 06:53:24;;;;;;;4.28;1.10;;;;;;;18.93;55.32;101056.84;4891939;29;20380;-74
2022/07/21 06:55:52;;;;;;;5.38;1.42;;;;;;;18.96;55.44;101061.78;4901623;29;20037;-73
2022/07/21 06:58:20;;;;;;;3.08;1.23;;;;;;;18.88;55.18;101069.97;4906166;29;20076;-73
2022/07/21 07:00:48;;;;;;;3.00;0.82;;;;;;;18.94;55.32;101058.50;4898946;29;20543;-73
2022/07/21 07:03:14;;;;;;;2.78;0.93;;;;;;;18.94;55.18;101060.44;4881364;29;20045;-72
2022/07/21 07:05:40;;;;;;;8.20;1.20;;;;;;;18.93;54.85;101061.59;4897726;29;20111;-73
2022/07/21 07:08:06;;;;;;;3.53;1.00;;;;;;;19.10;54.68;101067.34;4892692;29;20029;-73
2022/07/21 07:10:31;;;;;;;5.50;1.25;;;;;;;19.06;54.15;101065.50;4884198;29;20068;-73
2022/07/21 07:12:57;;;;;;;2.95;1.00;;;;;;;19.26;54.69;101065.06;4866194;29;20622;-73
2022/07/21 07:15:24;;;;;;;1.77;0.70;;;;;;;19.60;54.46;101069.34;4890541;29;20039;-72
2022/07/21 07:17:51;;;;;;;1.73;0.70;;;;;;;19.78;53.57;101067.56;4896106;29;20043;-72
2022/07/21 07:20:17;;;;;;;3.67;0.95;;;;;;;19.87;52.76;101073.19;4862563;29;20432;-71
2022/07/21 07:22:43;;;;;;;1.48;0.77;;;;;;;19.94;53.35;101076.34;4868186;29;20029;-72
2022/07/21 07:25:09;;;;;;;8.25;1.05;;;;;;;20.07;53.28;101083.00;4884496;29;20613;-71
2022/07/21 07:27:34;;;;;;;3.50;1.05;;;;;;;20.14;52.70;101071.47;4886769;29;20044;-72
2022/07/21 07:30:00;;;;;;;7.72;1.10;;;;;;;20.13;52.38;101078.13;4857242;29;20028;-72
2022/07/21 07:32:26;;;;;;;1.02;0.63;;;;;;;20.16;52.71;101080.28;4889745;29;20056;-73
2022/07/21 07:34:51;;;;;;;2.38;0.90;;;;;;;20.24;52.63;101082.31;4886272;29;20088;-72
2022/07/21 07:37:17;;;;;;;4.93;1.30;;;;;;;20.12;51.42;101085.66;4890512;29;20030;-72
2022/07/21 07:39:42;;;;;;;3.35;1.02;;;;;;;20.01;52.39;101090.63;4894453;29;20036;-72
2022/07/21 07:42:08;;;;;;;2.72;1.00;;;;;;;20.21;52.13;101089.31;4871664;29;20468;-72
2022/07/21 07:44:34;;;;;;;2.17;0.77;;;;;;;20.36;51.85;101082.56;4881979;29;20060;-71
2022/07/21 07:47:01;;;;;;;1.00;0.65;;;;;;;20.51;51.31;101086.06;4880487;29;20524;-72
2022/07/21 07:49:28;;;;;;;1.30;0.63;;;;;;;20.66;51.41;101087.63;4895347;29;20020;-73
2022/07/21 07:51:54;;;;;;;3.78;0.98;;;;;;;20.67;50.94;101087.34;4883364;29;20056;-72
2022/07/21 07:54:19;;;;;;;4.35;0.90;;;;;;;20.69;50.88;101082.31;4900077;29;20068;-72
2022/07/21 07:56:44;;;;;;;1.52;0.80;;;;;;;20.73;51.05;101085.25;4899662;29;20399;-71
2022/07/21 07:59:10;;;;;;;2.53;0.90;;;;;;;20.84;50.59;101083.03;4880745;29;20398;-71
2022/07/21 08:01:35;;;;;;;2.78;1.10;;;;;;;20.87;50.45;101087.94;4862045;29;20393;-72
2022/07/21 08:04:01;;;;;;;1.60;0.80;;;;;;;20.96;50.47;101083.25;4873258;29;20373;-72
2022/07/21 08:06:27;;;;;;;1.67;0.90;;;;;;;21.22;50.30;101088.91;4876017;29;20384;-72
2022/07/21 08:08:52;;;;;;;1.35;0.47;;;;;;;21.55;49.65;101094.09;4863637;29;20040;-73
2022/07/21 08:11:17;;;;;;;5.07;1.48;;;;;;;21.94;48.89;101080.38;4893563;29;20068;-72
2022/07/21 08:13:46;;;;;;;1.50;0.80;;;;;;;22.23;48.15;101092.81;4863428;29;20032;-73
2022/07/21 08:16:15;;;;;;;2.30;0.65;;;;;;;22.44;47.22;101088.22;4877476;29;20032;-72
2022/07/21 08:18:41;;;;;;;2.38;0.73;;;;;;;22.72;47.20;101084.22;4877186;29;20586;-72
2022/07/21 08:21:07;;;;;;;1.13;0.63;;;;;;;22.79;46.28;101079.78;4891082;29;20036;-72
2022/07/21 08:23:32;;;;;;;5.82;1.05;;;;;;;22.96;45.97;101086.44;4892009;29;20421;-71
2022/07/21 08:25:58;;;;;;;5.45;0.85;;;;;;;23.02;46.45;101090.66;4899593;29;20036;-72
2022/07/21 08:28:23;;;;;;;1.20;0.60;;;;;;;23.06;46.01;101086.06;4878416;29;20579;-72
2022/07/21 08:30:49;;;;;;;1.73;0.60;;;;;;;23.26;45.56;101084.53;4867953;29;20423;-72
2022/07/21 08:33:14;;;;;;;0.75;0.50;;;;;;;23.58;45.40;101086.94;4896686;29;20383;-72
2022/07/21 08:35:40;;;;;;;2.75;0.70;;;;;;;23.82;44.89;101084.31;4896564;29;20480;-72
2022/07/21 08:38:08;;;;;;;1.67;0.60;;;;;;;24.01;44.68;101091.44;4880382;29;20465;-72
2022/07/21 08:40:37;;;;;;;2.10;0.82;;;;;;;24.16;43.91;101096.38;4892801;29;20487;-72
2022/07/21 08:43:04;;;;;;;1.52;0.80;;;;;;;24.39;42.70;101090.41;4894986;29;20033;-72
2022/07/21 08:45:30;;;;;;;4.43;0.70;;;;;;;24.64;43.13;101085.72;4874014;29;20040;-73
2022/07/21 08:47:57;;;;;;;2.40;0.63;;;;;;;25.05;42.14;101083.13;4879120;29;20033;-71
2022/07/21 08:50:25;;;;;;;1.27;0.77;;;;;;;25.45;41.76;101079.63;4888108;29;20081;-72
2022/07/21 08:52:51;;;;;;;3.33;1.30;;;;;;;25.73;39.90;101079.69;4897111;29;20035;-72
2022/07/21 08:55:16;;;;;;;2.95;0.70;;;;;;;26.00;39.40;101076.50;4895365;29;20036;-73
2022/07/21 08:57:42;;;;;;;4.65;0.82;;;;;;;25.88;39.03;101080.13;4857371;29;20033;-72
2022/07/21 09:00:09;;;;;;;6.25;1.17;;;;;;;26.02;38.99;101076.94;4898254;29;20369;-72
2022/07/21 09:02:37;;;;;;;1.45;0.65;;;;;;;26.40;39.20;101076.44;4898150;29;20402;-72
2022/07/21 09:05:05;;;;;;;4.57;0.90;;;;;;;26.52;37.43;101071.91;4879912;29;20037;-70
2022/07/21 09:07:51;;;;;;;1.52;0.73;;;;;;;26.91;38.13;101074.97;4894190;29;20068;-73
2022/07/21 09:10:25;;;;;;;3.00;1.00;;;;;;;27.43;37.46;101073.03;4881016;29;20036;-73
2022/07/21 09:12:55;;;;;;;;;;;;;;;28.09;36.63;101081.72;4874432;29;20096;-73
2022/07/21 09:15:23;;;;;;;2.22;0.50;;;;;;;28.55;35.81;101088.22;4875307;29;19931;-72
2022/07/21 09:18:07;;;;;;;2.80;1.00;;;;;;;29.10;34.81;101083.56;4898281;29;20064;-73
2022/07/21 09:20:33;;;;;;;5.28;1.20;;;;;;;29.29;33.54;101086.31;4873665;29;20051;-71
2022/07/21 09:23:02;;;;;;;1.60;0.93;;;;;;;29.41;34.34;101082.47;4870628;29;20131;-73
2022/07/21 09:25:45;;;;;;;3.42;1.17;;;;;;;29.27;33.13;101091.50;4874482;29;20036;-73
2022/07/21 09:28:17;;;;;;;4.97;0.77;;;;;;;29.38;33.87;101086.88;4885700;29;20145;-71
2022/07/21 09:30:57;;;;;;;3.80;1.15;;;;;;;29.40;33.90;101080.84;4882960;29;20234;-72
2022/07/21 09:33:45;;;;;;;1.75;1.00;;;;;;;29.55;32.78;101079.03;4876599;29;20123;-71
2022/07/21 09:36:12;;;;;;;3.75;1.05;;;;;;;29.62;32.94;101076.34;4895085;29;20177;-72
2022/07/21 09:38:44;;;;;;;1.80;0.90;;;;;;;29.90;32.76;101075.13;4879178;29;20100;-72
2022/07/21 09:41:12;;;;;;;3.33;0.90;;;;;;;29.98;33.02;101076.84;4901836;29;20031;-71
2022/07/21 09:43:43;;;;;;;4.38;0.90;;;;;;;30.00;32.79;101071.63;4880341;29;20492;-73
2022/07/21 09:46:25;;;;;;;1.10;0.80;;;;;;;30.13;32.74;101068.56;4896723;29;20033;-73
2022/07/21 09:48:53;;;;;;;2.83;0.90;;;;;;;30.40;32.44;101075.72;4897814;29;20413;-72
2022/07/21 09:51:23;;;;;;;1.95;1.08;;;;;;;30.64;31.96;101068.69;4863366;29;20093;-72
2022/07/21 09:53:51;;;;;;;3.10;1.02;;;;;;;31.05;31.92;101084.81;4890805;29;20029;-73
2022/07/21 09:56:18;;;;;;;4.32;1.35;;;;;;;31.15;30.91;101086.91;4880830;29;20032;-71
2022/07/21 09:58:46;;;;;;;2.60;1.08;;;;;;;31.42;30.64;101095.16;4866799;29;20444;-71
2022/07/21 10:01:12;;;;;;;4.00;1.00;;;;;;;31.74;30.05;101083.25;4891646;29;20032;-72
2022/07/21 10:03:38;;;;;;;2.78;1.17;;;;;;;31.75;30.22;101073.59;4896415;29;20037;-71
2022/07/21 10:06:05;;;;;;;6.00;1.90;;;;;;;33.31;27.73;101080.34;4895853;29;20040;-74
2022/07/21 10:08:33;;;;;;;3.20;1.48;;;;;;;35.22;25.67;101080.19;4890638;29;20092;-73
2022/07/21 10:10:58;;;;;;;4.40;1.65;;;;;;;37.53;21.94;101076.91;4888618;29;20028;-72
2022/07/21 10:13:24;;;;;;;3.05;1.02;;;;;;;39.70;20.70;101076.22;4867445;29;20112;-72
2022/07/21 10:15:50;;;;;;;2.47;0.88;;;;;;;41.31;19.63;101065.72;4900114;29;20059;-73
2022/07/21 10:18:17;;;;;;;4.38;1.42;;;;;;;43.27;17.72;101063.28;4895679;29;20060;-73
2022/07/21 10:20:48;;;;;;;4.40;1.60;;;;;;;44.50;16.72;101067.00;4901642;29;20031;-72
2022/07/21 10:23:40;;;;;;;2.13;0.80;;;;;;;46.06;16.04;101050.91;4898274;29;20039;-72
2022/07/21 10:26:08;;;;;;;1.23;0.88;;;;;;;47.31;15.03;101045.53;4890831;29;20601;-74
2022/07/21 10:28:34;;;;;;;2.38;0.80;;;;;;;48.01;13.67;101049.34;4883332;29;20028;-73
2022/07/21 10:31:14;;;;;;;2.72;1.25;;;;;;;47.89;13.44;101041.91;4899407;29;20158;-74
2022/07/21 10:33:45;;;;;;;3.00;1.02;;;;;;;48.33;12.90;101045.66;4897044;29;20024;-73
2022/07/21 10:36:28;;;;;;;2.70;1.10;;;;;;;48.87;12.37;101044.91;4875650;29;20033;-73
2022/07/21 10:39:09;;;;;;;5.40;0.93;;;;;;;50.09;12.05;101039.03;4892081;29;20032;-72
2022/07/21 10:41:38;;;;;;;3.08;0.95;;;;;;;51.28;11.24;101037.78;4893667;29;20029;-72
2022/07/21 10:44:27;;;;;;;4.32;1.20;;;;;;;52.28;10.83;101030.84;4888914;29;20389;-72
2022/07/21 10:47:21;;;;;;;2.17;1.17;;;;;;;50.86;10.64;101034.03;4892451;29;20060;-72
2022/07/21 10:50:01;;;;;;;5.22;1.50;;;;;;;47.73;11.76;101028.88;4897365;29;20025;-74
2022/07/21 10:52:35;;;;;;;2.08;1.10;;;;;;;44.61;14.55;101021.13;4898172;29;20044;-73
2022/07/21 10:55:10;;;;;;;3.15;1.40;;;;;;;44.50;14.57;101020.88;4898269;29;20036;-72
2022/07/21 10:57:43;;;;;;;2.90;1.20;;;;;;;47.35;13.46;101017.19;4891642;29;20033;-73
2022/07/21 11:00:27;;;;;;;2.05;0.80;;;;;;;50.48;11.82;101016.97;4901480;29;20033;-74
2022/07/21 11:03:12;;;;;;;1.95;0.88;;;;;;;51.66;10.95;101017.66;4883119;29;20075;-73
2022/07/21 11:06:22;;;;;;;2.38;1.17;;;;;;;49.96;11.19;101006.81;4880827;29;20021;-72
2022/07/21 11:09:03;;;;;;;4.50;1.15;;;;;;;47.86;12.05;101020.53;4878295;29;20029;-73
2022/07/21 11:11:30;;;;;;;1.63;1.05;;;;;;;45.23;13.55;101012.97;4895791;29;20056;-73
2022/07/21 11:14:11;;;;;;;2.00;1.50;;;;;;;44.16;14.81;101008.56;4877134;29;20048;-73
2022/07/21 11:17:02;;;;;;;2.72;1.20;;;;;;;44.16;14.51;101007.72;4874911;29;20041;-73
2022/07/21 11:19:37;;;;;;;2.45;1.35;;;;;;;43.58;15.01;101008.41;4871200;29;20025;-73
2022/07/21 11:22:11;;;;;;;3.20;1.20;;;;;;;42.40;15.99;101008.66;4886666;29;20040;-73
2022/07/21 11:24:38;;;;;;;2.28;1.00;;;;;;;41.08;17.20;101001.00;4893484;29;20035;-72
2022/07/21 11:27:09;;;;;;;4.05;1.20;;;;;;;39.93;18.29;100994.97;4895681;29;20038;-73
2022/07/21 11:29:37;;;;;;;2.28;1.20;;;;;;;39.50;18.87;100995.44;4898912;29;20103;-74